Time;durP1;ratioP1;P1;durP2;ratioP2;P2;SDS_P1;SDS_P2;PMS_P1;PMS_P2;Temp;Humidity;BMP_temperature;BMP_pressure;BME280_temperature;BME280_humidity;BME280_pressure;Samples;Min_cycle;Max_cycle;Signal;HPM_P1;HPM_P2
2023/08/24 00:01:12;;;;;;;1.30;1.02;;;;;;;27.52;50.66;100156.91;10456057;27;96778;-80
2023/08/24 00:06:16;;;;;;;1.90;1.27;;;;;;;27.26;51.27;100164.34;10456460;27;96603;-80
2023/08/24 00:11:20;;;;;;;1.67;1.27;;;;;;;27.29;51.29;100164.00;10455657;27;96797;-80
2023/08/24 00:16:23;;;;;;;1.40;1.17;;;;;;;27.13;51.22;100165.88;10456652;27;97775;-79
2023/08/24 00:21:28;;;;;;;1.65;1.25;;;;;;;27.09;51.39;100164.50;10478243;27;97218;-80
2023/08/24 00:26:32;;;;;;;1.17;1.08;;;;;;;26.91;51.71;100162.78;10454954;27;96676;-80
2023/08/24 00:31:35;;;;;;;1.70;1.20;;;;;;;27.09;51.33;100153.72;10456182;27;96640;-80
2023/08/24 00:36:40;;;;;;;2.35;1.50;;;;;;;26.94;51.20;100148.06;10455355;27;96791;-80
2023/08/24 00:41:44;;;;;;;2.60;1.15;;;;;;;26.50;52.55;100152.91;10455178;27;96592;-80
2023/08/24 00:46:48;;;;;;;1.33;1.13;;;;;;;27.08;50.79;100142.03;10453454;27;96713;-80
2023/08/24 00:51:53;;;;;;;2.00;1.40;;;;;;;26.43;52.29;100138.38;10492454;27;96731;-80
2023/08/24 00:56:57;;;;;;;1.65;1.23;;;;;;;26.38;52.65;100142.56;10468915;27;96785;-80
2023/08/24 01:02:01;;;;;;;1.98;1.45;;;;;;;26.89;51.24;100131.53;10462313;27;97064;-80
2023/08/24 01:07:06;;;;;;;1.88;1.20;;;;;;;26.72;52.07;100146.03;10461159;27;96653;-80
2023/08/24 01:12:18;;;;;;;1.52;1.30;;;;;;;26.74;51.84;100146.72;10462289;27;97321;-80
2023/08/24 01:17:27;;;;;;;1.80;1.27;;;;;;;26.64;52.13;100154.13;10460196;27;97076;-80
2023/08/24 01:22:38;;;;;;;1.38;1.17;;;;;;;26.51;52.34;100151.88;10462127;27;96714;-80
2023/08/24 01:27:44;;;;;;;1.48;1.10;;;;;;;26.39;52.55;100141.56;10461496;27;96656;-79
2023/08/24 01:32:48;;;;;;;1.95;1.50;;;;;;;26.19;52.83;100151.75;10461197;27;97920;-80
2023/08/24 01:37:51;;;;;;;1.83;1.50;;;;;;;26.18;53.00;100151.91;10459814;27;97877;-80
2023/08/24 01:43:03;;;;;;;2.25;1.50;;;;;;;26.25;52.80;100150.22;10460617;27;96815;-80
2023/08/24 01:48:08;;;;;;;1.65;1.13;;;;;;;26.06;52.91;100161.28;10460566;27;96737;-80
2023/08/24 01:53:12;;;;;;;1.85;1.30;;;;;;;25.92;53.49;100166.28;10460177;27;97779;-80
2023/08/24 01:58:17;;;;;;;1.20;1.10;;;;;;;25.69;53.87;100167.81;10459951;27;96640;-80
2023/08/24 02:03:20;;;;;;;1.63;1.42;;;;;;;25.86;53.47;100164.25;10460445;27;96731;-80
2023/08/24 02:08:24;;;;;;;1.80;1.40;;;;;;;25.71;54.05;100163.13;10458721;27;96836;-80
2023/08/24 02:13:29;;;;;;;;;;;;;;;25.47;55.17;100173.69;10461168;27;97393;-80
2023/08/24 02:18:32;;;;;;;;;;;;;;;25.44;55.69;100171.31;10475914;27;97679;-80
2023/08/24 02:23:35;;;;;;;2.38;1.60;;;;;;;25.46;54.90;100176.56;10459274;27;96761;-80
2023/08/24 02:28:40;;;;;;;2.60;1.47;;;;;;;25.54;54.87;100166.69;10457867;27;96921;-79
2023/08/24 02:33:43;;;;;;;2.30;1.42;;;;;;;25.29;55.89;100170.22;10458779;27;97705;-79
2023/08/24 02:38:47;;;;;;;2.80;1.47;;;;;;;25.49;55.32;100163.63;10458933;27;96817;-79
2023/08/24 02:43:52;;;;;;;2.17;1.63;;;;;;;25.35;55.98;100166.00;10459137;27;96813;-79
2023/08/24 02:48:55;;;;;;;1.98;1.58;;;;;;;25.34;56.01;100164.34;10458120;27;96789;-79
2023/08/24 02:53:59;;;;;;;2.00;1.60;;;;;;;25.27;56.32;100171.34;10458620;27;96773;-79
2023/08/24 02:59:03;;;;;;;1.73;1.60;;;;;;;25.28;56.32;100170.34;10457786;27;96842;-80
2023/08/24 03:04:06;;;;;;;2.78;1.70;;;;;;;25.22;56.43;100171.81;10458801;27;96640;-79
2023/08/24 03:09:10;;;;;;;2.10;1.63;;;;;;;25.30;56.20;100173.72;10458000;27;97005;-79
2023/08/24 03:14:14;;;;;;;2.87;2.00;;;;;;;25.36;56.44;100178.50;10457217;27;97091;-79
2023/08/24 03:19:18;;;;;;;3.15;2.10;;;;;;;25.11;57.53;100179.28;10455676;27;96991;-79
2023/08/24 03:24:21;;;;;;;;;;;;;;;25.05;58.47;100182.59;10457623;27;96715;-79
2023/08/24 03:29:26;;;;;;;3.38;2.25;;;;;;;24.87;58.17;100184.41;10457738;27;96711;-79
2023/08/24 03:34:31;;;;;;;2.47;1.80;;;;;;;24.86;58.25;100194.34;10456960;27;96706;-79
2023/08/24 03:39:34;;;;;;;2.97;2.15;;;;;;;24.84;58.39;100194.47;10456729;27;96803;-79
2023/08/24 03:44:39;;;;;;;4.23;3.17;;;;;;;24.91;58.61;100193.88;10457309;27;96832;-79
2023/08/24 03:49:44;;;;;;;2.92;2.45;;;;;;;24.66;59.48;100195.47;10472853;27;97465;-79
2023/08/24 03:54:47;;;;;;;3.38;2.35;;;;;;;24.79;58.92;100196.78;10499478;27;97343;-79
2023/08/24 03:59:52;;;;;;;3.40;2.23;;;;;;;24.69;59.09;100193.31;10498322;27;96907;-79
2023/08/24 04:04:55;;;;;;;3.20;2.30;;;;;;;24.63;59.33;100199.31;10457951;27;96676;-79
2023/08/24 04:09:59;;;;;;;2.93;2.30;;;;;;;24.51;59.47;100207.75;10455044;27;96695;-79
2023/08/24 04:15:05;;;;;;;3.60;2.80;;;;;;;24.66;59.47;100201.69;10455567;27;96849;-79
2023/08/24 04:20:10;;;;;;;6.53;4.13;;;;;;;24.59;59.77;100200.59;10455655;27;96869;-80
2023/08/24 04:25:13;;;;;;;4.13;3.00;;;;;;;24.40;60.58;100213.31;10455452;27;96693;-79
2023/08/24 04:30:18;;;;;;;5.00;3.73;;;;;;;24.65;59.84;100212.63;10454386;27;96681;-80
2023/08/24 04:35:26;;;;;;;5.40;3.83;;;;;;;24.51;60.17;100216.66;10455802;27;96766;-79
2023/08/24 04:40:29;;;;;;;8.18;5.10;;;;;;;24.22;61.57;100225.84;10455102;27;98103;-80
2023/08/24 04:45:34;;;;;;;5.10;3.67;;;;;;;24.38;60.91;100232.28;10455505;27;97773;-80
2023/08/24 04:50:37;;;;;;;6.07;4.30;;;;;;;24.54;60.58;100239.72;10454510;27;96965;-79
2023/08/24 04:55:40;;;;;;;6.20;4.20;;;;;;;24.40;60.92;100246.44;10455051;27;96701;-79
2023/08/24 05:00:45;;;;;;;9.00;5.77;;;;;;;24.39;61.33;100255.50;10453982;27;98356;-79
2023/08/24 05:05:49;;;;;;;7.70;4.95;;;;;;;24.14;62.45;100258.81;10454484;27;97703;-79
2023/08/24 05:10:52;;;;;;;7.27;4.77;;;;;;;24.22;62.09;100264.31;10454933;27;98031;-79
2023/08/24 05:15:57;;;;;;;5.28;3.90;;;;;;;24.12;62.40;100268.00;10453969;27;96890;-79
2023/08/24 05:21:00;;;;;;;5.93;4.50;;;;;;;24.34;61.72;100260.47;10493962;27;96842;-80
2023/08/24 05:26:04;;;;;;;7.50;4.70;;;;;;;24.35;61.66;100277.47;10487803;27;98145;-79
2023/08/24 05:31:10;;;;;;;8.23;5.00;;;;;;;24.64;60.94;100273.66;10453458;27;96650;-80
2023/08/24 05:36:14;;;;;;;5.55;4.32;;;;;;;24.45;61.48;100289.03;10454262;27;96807;-80
2023/08/24 05:41:17;;;;;;;8.60;4.70;;;;;;;24.35;61.84;100288.22;10455416;27;96571;-80
2023/08/24 05:46:22;;;;;;;7.30;4.87;;;;;;;24.27;62.24;100285.41;10460991;27;97191;-80
2023/08/24 05:51:25;;;;;;;7.40;5.07;;;;;;;24.18;62.46;100286.28;10459574;27;96534;-80
2023/08/24 05:56:28;;;;;;;9.67;5.50;;;;;;;24.25;62.47;100290.94;10460054;27;97821;-80
2023/08/24 06:01:33;;;;;;;13.13;7.73;;;;;;;24.22;62.70;100293.06;10460676;27;96728;-79
2023/08/24 06:06:37;;;;;;;10.65;6.05;;;;;;;24.32;62.66;100299.28;10459919;27;96760;-80
2023/08/24 06:11:40;;;;;;;11.65;6.57;;;;;;;24.29;62.76;100300.41;10459751;27;96820;-79
2023/08/24 06:16:45;;;;;;;10.43;6.18;;;;;;;24.24;63.09;100305.34;10458583;27;96904;-80
2023/08/24 06:21:48;;;;;;;9.57;5.90;;;;;;;24.36;62.79;100300.69;10458961;27;96688;-80
2023/08/24 06:26:52;;;;;;;12.00;7.17;;;;;;;24.38;62.93;100304.91;10459911;27;96717;-80
2023/08/24 06:31:56;;;;;;;12.83;7.23;;;;;;;24.42;62.81;100308.16;10459060;27;97309;-80
2023/08/24 06:37:03;;;;;;;10.05;6.40;;;;;;;24.53;62.63;100319.59;10491125;27;97632;-80
2023/08/24 06:42:06;;;;;;;8.52;5.57;;;;;;;24.36;62.75;100314.97;10500347;27;96938;-80
2023/08/24 06:47:11;;;;;;;11.60;6.53;;;;;;;24.39;63.06;100322.75;10500723;27;96876;-80
2023/08/24 06:52:15;;;;;;;14.18;8.55;;;;;;;24.44;62.93;100323.19;10481488;27;96821;-80
2023/08/24 06:57:18;;;;;;;13.60;7.93;;;;;;;24.15;64.12;100330.41;10457794;27;96667;-80
2023/08/24 07:02:23;;;;;;;12.90;7.43;;;;;;;24.10;64.69;100332.69;10458526;27;97664;-80
2023/08/24 07:07:26;;;;;;;13.48;7.60;;;;;;;24.26;64.07;100324.88;10458467;27;96998;-80
2023/08/24 07:12:29;;;;;;;12.13;6.73;;;;;;;24.60;63.36;100322.56;10457926;27;97465;-80
2023/08/24 07:17:34;;;;;;;11.70;7.30;;;;;;;24.50;63.73;100330.66;10469823;27;96786;-80
2023/08/24 07:22:38;;;;;;;15.27;8.23;;;;;;;24.53;63.53;100327.66;10499371;27;96745;-80
2023/08/24 07:27:41;;;;;;;11.57;7.10;;;;;;;24.74;62.91;100333.66;10469434;27;97765;-80
2023/08/24 07:32:47;;;;;;;13.15;8.00;;;;;;;24.75;62.95;100330.00;10456097;27;96682;-80
2023/08/24 07:37:50;;;;;;;14.02;7.60;;;;;;;24.96;62.41;100324.34;10456899;27;96587;-80
2023/08/24 07:42:56;;;;;;;13.18;7.75;;;;;;;24.91;62.62;100318.56;10457242;27;96763;-80
2023/08/24 07:48:01;;;;;;;10.63;6.70;;;;;;;25.12;62.29;100334.50;10456281;27;97543;-80
2023/08/24 07:53:05;;;;;;;12.23;7.32;;;;;;;25.08;62.27;100351.94;10456687;27;97735;-80
2023/08/24 07:58:08;;;;;;;;;;;;;;;24.83;63.85;100359.69;10456824;27;97592;-81
2023/08/24 08:03:13;;;;;;;12.13;7.20;;;;;;;24.52;64.24;100352.88;10456324;27;97022;-81
2023/08/24 08:08:17;;;;;;;10.80;7.00;;;;;;;25.31;62.64;100339.75;10455222;27;96760;-80
2023/08/24 08:13:21;;;;;;;10.38;6.45;;;;;;;26.31;60.43;100346.56;10456191;27;98263;-80
2023/08/24 08:18:25;;;;;;;9.52;5.78;;;;;;;27.61;57.14;100353.28;10481958;27;97696;-81
2023/08/24 08:23:29;;;;;;;8.85;5.82;;;;;;;28.27;55.87;100349.59;10496896;27;96906;-81
2023/08/24 08:28:34;;;;;;;8.30;5.50;;;;;;;28.74;54.79;100354.06;10497417;27;96797;-80
2023/08/24 08:33:39;;;;;;;7.57;5.32;;;;;;;29.40;52.96;100360.94;10485184;27;96860;-82
2023/08/24 08:38:42;;;;;;;8.55;6.03;;;;;;;29.18;53.08;100349.84;10454260;27;96871;-80
2023/08/24 08:43:45;;;;;;;;;;;;;;;28.83;51.26;100347.59;10455531;27;97098;-81
2023/08/24 08:48:53;;;;;;;7.22;5.18;;;;;;;29.59;51.30;100341.53;10454599;27;96775;-82
2023/08/24 08:53:57;;;;;;;7.72;5.22;;;;;;;30.93;48.78;100346.88;10455526;27;96883;-82
2023/08/24 08:59:01;;;;;;;7.25;5.10;;;;;;;31.80;46.63;100349.47;10455304;27;97533;-80
2023/08/24 09:04:07;;;;;;;6.20;4.82;;;;;;;32.30;45.58;100348.44;10454516;27;97806;-80
2023/08/24 09:09:11;;;;;;;6.75;4.60;;;;;;;32.66;44.75;100356.44;10454751;27;96640;-81
2023/08/24 09:14:14;;;;;;;6.78;4.40;;;;;;;32.47;44.72;100362.59;10453136;27;96702;-81
2023/08/24 09:19:20;;;;;;;5.75;4.55;;;;;;;32.53;44.76;100361.84;10459183;27;96923;-82
2023/08/24 09:24:31;;;;;;;5.68;4.28;;;;;;;32.61;44.07;100367.13;10461653;27;96759;-81
2023/08/24 09:29:38;;;;;;;5.97;4.20;;;;;;;31.99;44.40;100376.03;10461198;27;96650;-82
2023/08/24 09:34:43;;;;;;;5.30;4.10;;;;;;;32.18;44.61;100366.34;10460920;27;97718;-82
2023/08/24 09:39:46;;;;;;;6.00;4.13;;;;;;;32.50;44.05;100376.69;10460793;27;96733;-81
2023/08/24 09:44:50;;;;;;;5.35;3.83;;;;;;;32.53;43.23;100370.00;10461901;27;96982;-82
2023/08/24 09:49:55;;;;;;;6.88;4.40;;;;;;;32.36;43.41;100377.63;10461933;27;96798;-82
2023/08/24 09:55:04;;;;;;;5.28;3.90;;;;;;;32.24;43.23;100377.28;10501891;27;97584;-81
2023/08/24 10:00:11;;;;;;;6.03;4.10;;;;;;;32.51;43.37;100377.53;10477007;27;96956;-80
2023/08/24 10:05:20;;;;;;;4.63;3.50;;;;;;;32.78;41.96;100382.97;10458907;27;97109;-81
2023/08/24 10:10:43;;;;;;;5.63;3.88;;;;;;;32.83;41.78;100383.19;10459757;27;97467;-81
2023/08/24 10:15:49;;;;;;;5.55;3.95;;;;;;;32.39;42.07;100374.53;10472690;27;96753;-82
2023/08/24 10:20:54;;;;;;;5.05;3.40;;;;;;;32.72;42.06;100378.31;10501109;27;96880;-80
2023/08/24 10:25:57;;;;;;;4.78;3.40;;;;;;;33.13;41.21;100371.03;10501756;27;97653;-81
2023/08/24 10:31:03;;;;;;;3.80;3.20;;;;;;;32.88;41.77;100372.56;10500036;27;96974;-82
2023/08/24 10:36:08;;;;;;;4.22;3.40;;;;;;;33.27;41.01;100369.19;10500259;27;96714;-81
2023/08/24 10:41:13;;;;;;;4.53;3.83;;;;;;;33.75;39.55;100370.00;10502075;27;96663;-81
2023/08/24 10:46:18;;;;;;;3.95;3.03;;;;;;;33.11;40.65;100375.84;10500961;22;98749;-81
2023/08/24 10:51:27;;;;;;;4.63;3.40;;;;;;;33.28;39.70;100377.19;10397902;27;97721;-82
2023/08/24 10:56:38;;;;;;;4.22;3.20;;;;;;;33.73;39.37;100370.19;10373217;28;97115;-81
2023/08/24 11:01:42;;;;;;;5.75;3.70;;;;;;;33.14;40.17;100375.44;10374543;28;97172;-82
2023/08/24 11:06:55;;;;;;;4.38;3.22;;;;;;;33.23;38.45;100363.31;10374766;28;96789;-82
2023/08/24 11:12:00;;;;;;;4.22;3.65;;;;;;;33.81;37.92;100375.50;10374277;28;96643;-82
2023/08/24 11:17:22;;;;;;;4.60;3.25;;;;;;;33.84;37.13;100366.88;10398436;28;96772;-82
2023/08/24 11:22:28;;;;;;;4.22;3.33;;;;;;;33.69;37.38;100357.19;10414766;28;96732;-83
2023/08/24 11:27:34;;;;;;;5.10;4.07;;;;;;;33.54;37.18;100353.81;10415354;28;96754;-81
2023/08/24 11:32:37;;;;;;;5.20;3.45;;;;;;;33.90;36.45;100352.38;10415854;28;97355;-80
2023/08/24 11:37:42;;;;;;;4.13;3.47;;;;;;;33.75;37.09;100351.72;10415176;28;96886;-82
2023/08/24 11:42:45;;;;;;;5.35;3.42;;;;;;;33.31;37.11;100360.38;10413826;27;96752;-82
2023/08/24 11:47:50;;;;;;;4.20;3.67;;;;;;;33.65;37.38;100354.03;10412888;28;96724;-81
2023/08/24 11:52:55;;;;;;;5.05;4.00;;;;;;;33.46;37.43;100352.09;10414704;28;96723;-80
2023/08/24 11:57:59;;;;;;;5.50;4.30;;;;;;;33.47;38.19;100351.88;10399110;28;96963;-82
2023/08/24 12:03:03;;;;;;;5.22;4.03;;;;;;;33.61;38.52;100351.94;10372635;28;97669;-81
2023/08/24 12:08:08;;;;;;;4.05;3.65;;;;;;;33.65;38.22;100359.50;10372390;28;96904;-81
2023/08/24 12:13:13;;;;;;;6.18;4.20;;;;;;;32.72;38.80;100352.94;10372874;28;96855;-80
2023/08/24 12:18:17;;;;;;;7.00;4.30;;;;;;;32.88;38.77;100355.38;10371675;28;97203;-82
2023/08/24 12:23:22;;;;;;;4.38;3.28;;;;;;;32.63;37.89;100360.44;10372896;28;96571;-81
2023/08/24 12:28:25;;;;;;;6.30;4.25;;;;;;;33.07;38.26;100357.38;10371358;28;97794;-81
2023/08/24 12:33:30;;;;;;;5.55;3.97;;;;;;;32.29;40.13;100352.19;10371806;28;96712;-80
2023/08/24 12:38:35;;;;;;;4.43;3.97;;;;;;;32.41;39.65;100342.47;10370216;28;96723;-82
2023/08/24 12:43:39;;;;;;;4.93;3.95;;;;;;;32.91;38.66;100354.97;10371596;28;96680;-80
2023/08/24 12:48:44;;;;;;;4.82;3.67;;;;;;;32.36;38.61;100343.06;10378247;28;96808;-82
2023/08/24 12:53:49;;;;;;;4.50;3.95;;;;;;;32.53;38.87;100342.75;10416743;28;96774;-82
2023/08/24 12:58:52;;;;;;;4.22;3.53;;;;;;;32.24;37.28;100346.47;10426471;28;96707;-82
2023/08/24 13:03:55;;;;;;;6.47;3.85;;;;;;;32.58;38.20;100349.28;10426077;28;96766;-81
2023/08/24 13:09:00;;;;;;;4.43;3.60;;;;;;;32.64;38.71;100344.94;10386038;28;96683;-81
2023/08/24 13:14:04;;;;;;;5.53;3.55;;;;;;;32.57;39.19;100336.69;10384977;28;96646;-83
2023/08/24 13:19:07;;;;;;;4.07;3.00;;;;;;;33.01;38.47;100334.47;10421069;28;96707;-81
2023/08/24 13:24:12;;;;;;;4.00;3.28;;;;;;;33.02;39.11;100333.41;10425311;28;96660;-83
2023/08/24 13:29:15;;;;;;;4.82;3.25;;;;;;;33.09;38.54;100326.09;10424745;28;96941;-82
2023/08/24 13:34:20;;;;;;;5.07;3.30;;;;;;;33.22;38.63;100331.63;10425231;28;96678;-80
2023/08/24 13:39:28;;;;;;;3.50;3.15;;;;;;;33.19;39.00;100337.47;10424780;28;97910;-81
2023/08/24 13:44:31;;;;;;;4.00;3.00;;;;;;;33.26;38.93;100329.34;10425506;28;97292;-81
2023/08/24 13:49:34;;;;;;;4.55;3.13;;;;;;;33.22;38.90;100333.50;10424621;28;96824;-82
2023/08/24 13:54:44;;;;;;;4.05;2.47;;;;;;;33.58;38.66;100325.03;10425219;28;96742;-82
2023/08/24 13:59:59;;;;;;;3.85;2.47;;;;;;;33.76;38.44;100328.84;10384819;28;97481;-82
2023/08/24 14:05:06;;;;;;;3.88;2.42;;;;;;;33.84;38.35;100325.06;10378558;28;97409;-82
2023/08/24 14:10:11;;;;;;;4.68;2.60;;;;;;;33.56;38.42;100316.19;10376206;28;96767;-81
2023/08/24 14:15:15;;;;;;;3.92;2.63;;;;;;;33.87;38.00;100313.72;10376745;28;96572;-82
2023/08/24 14:20:18;;;;;;;4.95;2.55;;;;;;;34.01;37.84;100296.31;10401070;28;97030;-82
2023/08/24 14:25:23;;;;;;;3.05;2.28;;;;;;;34.06;37.76;100293.78;10417017;28;96631;-81
2023/08/24 14:30:26;;;;;;;3.63;2.28;;;;;;;33.97;38.00;100303.28;10416433;28;96725;-80
2023/08/24 14:35:30;;;;;;;4.38;2.33;;;;;;;34.06;37.37;100296.53;10417070;28;97079;-82
2023/08/24 14:40:37;;;;;;;3.75;2.17;;;;;;;34.17;37.42;100301.38;10417295;28;97271;-81
2023/08/24 14:45:40;;;;;;;2.85;2.20;;;;;;;33.91;37.50;100290.41;10416432;28;97209;-80
2023/08/24 14:50:44;;;;;;;3.53;2.40;;;;;;;33.61;36.72;100283.69;10415403;27;96839;-82
2023/08/24 14:55:48;;;;;;;2.60;1.77;;;;;;;34.14;36.27;100282.69;10416894;27;96884;-82
2023/08/24 15:00:53;;;;;;;3.83;2.30;;;;;;;34.11;36.48;100289.38;10416231;28;96693;-80
2023/08/24 15:05:59;;;;;;;3.80;1.83;;;;;;;33.96;36.78;100280.56;10384964;28;96832;-82
2023/08/24 15:11:04;;;;;;;5.72;2.17;;;;;;;33.87;36.72;100278.22;10373272;28;96785;-81
2023/08/24 15:16:10;;;;;;;3.67;1.92;;;;;;;34.11;36.57;100267.53;10373265;28;96678;-80
2023/08/24 15:21:14;;;;;;;3.67;2.10;;;;;;;34.13;36.12;100270.03;10398959;28;97461;-80
2023/08/24 15:26:19;;;;;;;2.97;2.03;;;;;;;34.35;36.41;100266.03;10373891;28;97530;-82
2023/08/24 15:31:23;;;;;;;3.08;1.98;;;;;;;34.02;36.25;100259.78;10373651;28;96810;-81
2023/08/24 15:36:26;;;;;;;3.20;1.90;;;;;;;33.42;36.80;100264.34;10373406;28;97420;-82
2023/08/24 15:41:31;;;;;;;4.72;2.00;;;;;;;33.23;37.75;100270.56;10373652;28;97317;-81
2023/08/24 15:46:35;;;;;;;3.75;1.85;;;;;;;33.28;37.55;100269.91;10372565;28;96912;-81
2023/08/24 15:51:38;;;;;;;4.57;1.90;;;;;;;33.30;37.67;100274.13;10403893;28;97650;-82
2023/08/24 15:56:45;;;;;;;2.75;1.70;;;;;;;33.12;38.20;100287.50;10393051;28;96648;-81
2023/08/24 16:01:48;;;;;;;2.70;1.88;;;;;;;32.91;37.92;100284.09;10371616;28;96907;-81
2023/08/24 16:06:52;;;;;;;3.58;1.70;;;;;;;32.66;39.01;100291.88;10372421;28;96824;-80
2023/08/24 16:11:57;;;;;;;4.00;1.88;;;;;;;32.55;38.96;100291.63;10372643;28;96784;-82
2023/08/24 16:17:01;;;;;;;3.33;1.90;;;;;;;32.55;39.56;100292.44;10371690;28;97060;-80
2023/08/24 16:22:06;;;;;;;3.15;1.80;;;;;;;32.45;40.02;100281.06;10413324;28;96692;-81
2023/08/24 16:27:11;;;;;;;4.78;1.90;;;;;;;32.29;40.42;100284.09;10412404;28;96732;-81
2023/08/24 16:32:14;;;;;;;3.78;1.40;;;;;;;32.17;40.93;100283.78;10412346;28;96707;-81
2023/08/24 16:37:18;;;;;;;3.17;1.55;;;;;;;32.10;40.91;100288.34;10413718;28;97126;-81
2023/08/24 16:42:22;;;;;;;2.47;1.52;;;;;;;32.06;41.35;100284.34;10412764;28;97141;-80
2023/08/24 16:47:27;;;;;;;3.65;1.58;;;;;;;32.01;41.57;100288.69;10411807;28;97875;-82
2023/08/24 16:52:30;;;;;;;3.42;1.50;;;;;;;31.78;41.91;100283.44;10411516;28;96819;-81
2023/08/24 16:57:35;;;;;;;3.35;1.52;;;;;;;31.62;41.79;100289.16;10412612;28;96823;-80
2023/08/24 17:02:39;;;;;;;1.77;1.20;;;;;;;31.44;42.62;100274.31;10408531;28;97375;-82
2023/08/24 17:07:42;;;;;;;2.88;1.20;;;;;;;31.60;42.49;100285.78;10370834;28;96644;-82
2023/08/24 17:12:47;;;;;;;2.80;1.45;;;;;;;31.44;42.32;100294.22;10370230;28;96692;-81
2023/08/24 17:17:50;;;;;;;3.13;1.23;;;;;;;31.06;42.95;100301.69;10370126;28;97593;-82
2023/08/24 17:22:54;;;;;;;3.47;1.35;;;;;;;30.98;43.48;100306.38;10404319;28;96731;-81
2023/08/24 17:28:00;;;;;;;4.78;1.20;;;;;;;30.98;43.45;100306.38;10412962;28;97605;-80
2023/08/24 17:33:04;;;;;;;2.42;1.25;;;;;;;30.66;44.37;100310.34;10411772;28;97084;-82
2023/08/24 17:38:07;;;;;;;2.10;1.05;;;;;;;30.74;44.22;100307.56;10413658;27;97986;-82
2023/08/24 17:43:12;;;;;;;3.13;1.35;;;;;;;30.62;44.22;100306.31;10417494;28;96970;-80
2023/08/24 17:48:16;;;;;;;2.85;1.45;;;;;;;30.70;44.21;100300.78;10417776;28;96873;-80
2023/08/24 17:53:21;;;;;;;1.85;0.90;;;;;;;30.33;44.87;100298.16;10416619;28;96794;-79
2023/08/24 17:58:26;;;;;;;2.92;1.30;;;;;;;30.34;44.81;100304.41;10376618;28;96654;-81
2023/08/24 18:03:29;;;;;;;5.65;1.60;;;;;;;30.29;45.29;100304.97;10376281;28;96723;-81
2023/08/24 18:08:33;;;;;;;5.72;1.67;;;;;;;29.97;45.80;100307.97;10376463;28;96693;-82
2023/08/24 18:13:54;;;;;;;3.67;1.17;;;;;;;29.93;46.08;100309.38;10376840;28;97037;-81
2023/08/24 18:18:59;;;;;;;2.28;1.15;;;;;;;29.75;46.42;100317.81;10378572;28;97507;-82
2023/08/24 18:24:02;;;;;;;4.13;1.48;;;;;;;29.41;47.20;100336.34;10417595;28;97224;-81
2023/08/24 18:29:06;;;;;;;;;;;;;;;29.04;48.12;100328.91;10401618;28;96698;-81
2023/08/24 18:34:10;;;;;;;5.97;1.50;;;;;;;28.79;48.84;100346.25;10374627;28;96807;-81
2023/08/24 18:39:14;;;;;;;3.25;1.30;;;;;;;28.60;48.88;100348.53;10375096;28;96750;-81
2023/08/24 18:44:19;;;;;;;3.85;1.42;;;;;;;28.56;49.32;100353.44;10375735;28;96818;-81
2023/08/24 18:49:23;;;;;;;2.53;1.33;;;;;;;28.58;48.81;100364.09;10373452;28;97694;-80
2023/08/24 18:54:27;;;;;;;2.83;1.20;;;;;;;28.44;49.16;100368.38;10405459;28;97512;-81
2023/08/24 18:59:32;;;;;;;2.03;1.23;;;;;;;28.36;49.66;100378.38;10415866;28;96681;-81
2023/08/24 19:04:36;;;;;;;4.80;1.10;;;;;;;28.22;49.50;100382.56;10387217;28;96995;-82
2023/08/24 19:09:39;;;;;;;;;;;;;;;28.06;51.17;100390.69;10376135;28;96737;-82
2023/08/24 19:14:44;;;;;;;5.75;1.77;;;;;;;27.87;50.14;100401.84;10374232;28;97503;-80
2023/08/24 19:19:47;;;;;;;1.98;1.20;;;;;;;27.71;50.61;100397.25;10383106;28;97105;-82
2023/08/24 19:24:53;;;;;;;3.60;1.70;;;;;;;27.60;50.67;100399.38;10414415;27;97417;-81
2023/08/24 19:29:58;;;;;;;4.30;1.05;;;;;;;27.46;51.65;100406.28;10415138;27;96714;-81
2023/08/24 19:35:02;;;;;;;3.58;1.23;;;;;;;27.41;51.41;100418.59;10415347;28;97230;-81
2023/08/24 19:40:07;;;;;;;3.92;1.45;;;;;;;27.24;51.93;100427.66;10356305;28;96765;-82
2023/08/24 19:45:12;;;;;;;3.85;1.30;;;;;;;27.15;52.78;100428.66;10372745;28;96738;-78
2023/08/24 19:50:16;;;;;;;3.95;1.75;;;;;;;27.04;52.41;100427.06;10379269;28;96933;-81
2023/08/24 19:55:19;;;;;;;2.22;1.10;;;;;;;26.94;53.28;100443.34;10388151;28;97463;-82
2023/08/24 20:00:24;;;;;;;2.33;0.95;;;;;;;26.77;53.45;100448.81;10373225;28;96700;-80
2023/08/24 20:05:30;;;;;;;1.90;0.98;;;;;;;26.62;53.90;100466.59;10372706;28;96765;-81
2023/08/24 20:10:33;;;;;;;2.65;1.30;;;;;;;26.65;53.59;100469.81;10372979;28;97011;-79
2023/08/24 20:15:38;;;;;;;2.00;1.20;;;;;;;26.44;54.29;100466.63;10370898;28;98417;-81
2023/08/24 20:20:42;;;;;;;3.63;1.52;;;;;;;26.60;54.09;100465.91;10381281;28;97481;-82
2023/08/24 20:25:46;;;;;;;3.60;1.50;;;;;;;26.43;54.76;100473.03;10413566;28;97045;-81
2023/08/24 20:30:50;;;;;;;1.13;0.90;;;;;;;26.47;54.21;100466.31;10412647;28;97100;-80
2023/08/24 20:35:54;;;;;;;3.55;1.10;;;;;;;26.44;54.43;100477.41;10413071;28;97126;-79
2023/08/24 20:40:57;;;;;;;2.77;1.30;;;;;;;26.44;54.31;100472.03;10413059;28;96787;-79
2023/08/24 20:46:02;;;;;;;2.47;1.17;;;;;;;26.42;54.28;100481.28;10412145;28;96759;-79
2023/08/24 20:51:06;;;;;;;2.80;1.23;;;;;;;26.53;53.99;100475.63;10413233;28;96647;-79
2023/08/24 20:56:10;;;;;;;4.13;1.43;;;;;;;26.29;54.66;100478.94;10412651;28;97501;-80
2023/08/24 21:01:16;;;;;;;3.33;1.38;;;;;;;26.14;55.29;100475.13;10403370;28;96627;-79
2023/08/24 21:06:19;;;;;;;2.20;0.90;;;;;;;26.27;54.82;100474.69;10369930;28;97413;-80
2023/08/24 21:11:23;;;;;;;2.53;1.50;;;;;;;26.09;54.98;100482.78;10370780;28;96836;-79
2023/08/24 21:16:27;;;;;;;1.87;1.03;;;;;;;25.99;55.51;100487.41;10377504;28;96757;-80
2023/08/24 21:21:31;;;;;;;2.72;1.20;;;;;;;25.74;56.54;100494.38;10394248;28;96774;-79
2023/08/24 21:26:34;;;;;;;3.87;1.47;;;;;;;25.78;55.91;100503.03;10419403;28;96758;-80
2023/08/24 21:31:39;;;;;;;3.83;1.40;;;;;;;25.60;56.51;100491.34;10419361;28;96890;-79
2023/08/24 21:36:42;;;;;;;2.70;1.40;;;;;;;25.67;56.04;100495.13;10397531;28;97632;-79
2023/08/24 21:41:46;;;;;;;2.92;1.23;;;;;;;25.53;56.65;100499.19;10378131;28;96818;-80
2023/08/24 21:46:50;;;;;;;4.60;1.80;;;;;;;25.23;57.66;100495.91;10376482;28;96805;-80
2023/08/24 21:51:54;;;;;;;4.75;1.45;;;;;;;25.35;56.96;100492.00;10382342;28;96824;-79
2023/08/24 21:56:57;;;;;;;3.77;1.07;;;;;;;25.32;57.45;100490.47;10416651;28;96946;-79
2023/08/24 22:02:02;;;;;;;;;;;;;;;25.14;58.73;100502.19;10418888;28;96671;-80
2023/08/24 22:07:06;;;;;;;;;;;;;;;25.19;58.46;100499.91;10418623;28;96754;-79
2023/08/24 22:12:09;;;;;;;1.98;1.20;;;;;;;24.92;58.24;100515.94;10384902;28;96696;-81
2023/08/24 22:17:14;;;;;;;2.67;1.47;;;;;;;24.76;58.97;100522.78;10375779;28;96852;-80
2023/08/24 22:22:18;;;;;;;2.85;1.27;;;;;;;24.55;60.04;100514.03;10398161;27;96600;-82
2023/08/24 22:27:21;;;;;;;3.20;1.48;;;;;;;24.70;59.26;100512.63;10415633;28;96711;-79
2023/08/24 22:32:26;;;;;;;2.93;1.37;;;;;;;24.68;59.35;100511.91;10417828;28;97568;-79
2023/08/24 22:37:30;;;;;;;3.63;1.35;;;;;;;24.80;59.00;100508.06;10416922;28;96957;-79
2023/08/24 22:42:33;;;;;;;3.50;1.60;;;;;;;24.90;58.50;100496.41;10415814;28;97362;-79
2023/08/24 22:47:38;;;;;;;2.60;1.30;;;;;;;24.81;58.70;100506.19;10414791;28;96890;-79
2023/08/24 22:52:42;;;;;;;2.00;1.30;;;;;;;24.55;59.35;100505.97;10416379;28;96783;-79
2023/08/24 22:57:45;;;;;;;3.08;1.30;;;;;;;24.30;59.98;100506.56;10416115;28;97080;-80
2023/08/24 23:02:50;;;;;;;5.07;1.70;;;;;;;24.25;59.97;100513.31;10385709;28;96947;-80
2023/08/24 23:07:54;;;;;;;2.28;1.50;;;;;;;24.24;60.06;100508.91;10374358;28;97070;-79
2023/08/24 23:12:58;;;;;;;3.65;1.40;;;;;;;24.12;60.32;100508.19;10374314;28;96529;-80
2023/08/24 23:18:02;;;;;;;4.60;1.70;;;;;;;24.00;60.71;100512.00;10395636;22;96962;-80
2023/08/24 23:23:06;;;;;;;4.03;1.17;;;;;;;24.05;60.31;100512.44;10416118;28;96691;-80